sensor_id;sensor_type;location;lat;lon;timestamp;temperature;humidity
60848;DHT22;46681;47.696;9.140;2023-04-28T00:00:21;14.40;53.20
60848;DHT22;46681;47.696;9.140;2023-04-28T00:02:49;14.40;53.30
60848;DHT22;46681;47.696;9.140;2023-04-28T00:05:16;14.40;53.30
60848;DHT22;46681;47.696;9.140;2023-04-28T00:07:46;14.40;53.30
60848;DHT22;46681;47.696;9.140;2023-04-28T00:10:13;14.40;53.40
60848;DHT22;46681;47.696;9.140;2023-04-28T00:12:45;14.40;53.50
60848;DHT22;46681;47.696;9.140;2023-04-28T00:15:28;14.40;53.70
60848;DHT22;46681;47.696;9.140;2023-04-28T00:18:00;14.30;53.60
60848;DHT22;46681;47.696;9.140;2023-04-28T00:20:27;14.30;53.60
60848;DHT22;46681;47.696;9.140;2023-04-28T00:23:00;14.30;54.00
60848;DHT22;46681;47.696;9.140;2023-04-28T00:25:30;14.30;53.90
60848;DHT22;46681;47.696;9.140;2023-04-28T00:27:57;14.30;53.70
60848;DHT22;46681;47.696;9.140;2023-04-28T00:30:26;14.30;53.80
60848;DHT22;46681;47.696;9.140;2023-04-28T00:32:59;14.30;53.80
60848;DHT22;46681;47.696;9.140;2023-04-28T00:35:26;14.30;54.00
60848;DHT22;46681;47.696;9.140;2023-04-28T00:37:56;14.30;53.90
60848;DHT22;46681;47.696;9.140;2023-04-28T00:40:22;14.30;54.10
60848;DHT22;46681;47.696;9.140;2023-04-28T00:42:54;14.20;54.00
60848;DHT22;46681;47.696;9.140;2023-04-28T00:45:20;14.20;54.20
60848;DHT22;46681;47.696;9.140;2023-04-28T00:47:47;14.20;54.10
60848;DHT22;46681;47.696;9.140;2023-04-28T00:50:18;14.20;54.10
60848;DHT22;46681;47.696;9.140;2023-04-28T00:52:45;14.20;54.10
60848;DHT22;46681;47.696;9.140;2023-04-28T00:55:14;14.20;54.20
60848;DHT22;46681;47.696;9.140;2023-04-28T00:57:42;14.20;54.40
60848;DHT22;46681;47.696;9.140;2023-04-28T01:00:12;14.20;54.40
60848;DHT22;46681;47.696;9.140;2023-04-28T01:02:42;14.20;54.40
60848;DHT22;46681;47.696;9.140;2023-04-28T01:05:10;14.10;54.30
60848;DHT22;46681;47.696;9.140;2023-04-28T01:07:37;14.20;54.50
60848;DHT22;46681;47.696;9.140;2023-04-28T01:10:02;14.10;54.40
60848;DHT22;46681;47.696;9.140;2023-04-28T01:12:30;14.10;54.40
60848;DHT22;46681;47.696;9.140;2023-04-28T01:14:57;14.10;54.50
60848;DHT22;46681;47.696;9.140;2023-04-28T01:17:24;14.10;54.50
60848;DHT22;46681;47.696;9.140;2023-04-28T01:19:51;14.10;54.60
60848;DHT22;46681;47.696;9.140;2023-04-28T01:22:17;14.10;54.60
60848;DHT22;46681;47.696;9.140;2023-04-28T01:24:47;14.00;54.80
60848;DHT22;46681;47.696;9.140;2023-04-28T01:27:14;14.10;54.90
60848;DHT22;46681;47.696;9.140;2023-04-28T01:29:42;14.00;54.80
60848;DHT22;46681;47.696;9.140;2023-04-28T01:32:26;14.00;55.00
60848;DHT22;46681;47.696;9.140;2023-04-28T01:35:03;14.00;55.00
60848;DHT22;46681;47.696;9.140;2023-04-28T01:37:38;14.00;55.20
60848;DHT22;46681;47.696;9.140;2023-04-28T01:40:05;14.00;55.20
60848;DHT22;46681;47.696;9.140;2023-04-28T01:42:35;14.00;55.20
60848;DHT22;46681;47.696;9.140;2023-04-28T01:45:12;14.00;55.20
60848;DHT22;46681;47.696;9.140;2023-04-28T01:47:39;14.00;55.20
60848;DHT22;46681;47.696;9.140;2023-04-28T01:50:05;14.00;55.30
60848;DHT22;46681;47.696;9.140;2023-04-28T01:52:30;14.00;55.30
60848;DHT22;46681;47.696;9.140;2023-04-28T01:57:47;14.00;56.00
60848;DHT22;46681;47.696;9.140;2023-04-28T02:00:16;13.90;55.90
60848;DHT22;46681;47.696;9.140;2023-04-28T02:02:43;14.00;55.70
60848;DHT22;46681;47.696;9.140;2023-04-28T02:05:09;13.90;55.60
60848;DHT22;46681;47.696;9.140;2023-04-28T02:07:38;13.90;55.70
60848;DHT22;46681;47.696;9.140;2023-04-28T02:10:06;13.90;55.70
60848;DHT22;46681;47.696;9.140;2023-04-28T02:12:36;13.90;56.00
60848;DHT22;46681;47.696;9.140;2023-04-28T02:15:02;13.90;56.10
60848;DHT22;46681;47.696;9.140;2023-04-28T02:17:30;13.90;56.10
60848;DHT22;46681;47.696;9.140;2023-04-28T02:20:00;13.90;56.00
60848;DHT22;46681;47.696;9.140;2023-04-28T02:22:31;13.90;56.30
60848;DHT22;46681;47.696;9.140;2023-04-28T02:24:57;13.90;56.20
60848;DHT22;46681;47.696;9.140;2023-04-28T02:27:24;13.90;56.40
60848;DHT22;46681;47.696;9.140;2023-04-28T02:29:52;13.90;56.50
60848;DHT22;46681;47.696;9.140;2023-04-28T02:32:19;13.90;56.50
60848;DHT22;46681;47.696;9.140;2023-04-28T02:34:46;13.90;56.60
60848;DHT22;46681;47.696;9.140;2023-04-28T02:37:19;13.90;56.70
60848;DHT22;46681;47.696;9.140;2023-04-28T02:39:48;13.90;56.90
60848;DHT22;46681;47.696;9.140;2023-04-28T02:42:17;13.90;56.90
60848;DHT22;46681;47.696;9.140;2023-04-28T02:44:44;13.90;57.10
60848;DHT22;46681;47.696;9.140;2023-04-28T02:47:11;13.90;57.40
60848;DHT22;46681;47.696;9.140;2023-04-28T02:49:37;13.90;57.20
60848;DHT22;46681;47.696;9.140;2023-04-28T02:52:02;13.90;57.50
60848;DHT22;46681;47.696;9.140;2023-04-28T02:54:29;13.80;57.50
60848;DHT22;46681;47.696;9.140;2023-04-28T02:56:56;13.90;57.60
60848;DHT22;46681;47.696;9.140;2023-04-28T02:59:25;13.90;57.80
60848;DHT22;46681;47.696;9.140;2023-04-28T03:01:55;13.90;58.10
60848;DHT22;46681;47.696;9.140;2023-04-28T03:04:22;13.80;58.30
60848;DHT22;46681;47.696;9.140;2023-04-28T03:06:52;13.80;58.30
60848;DHT22;46681;47.696;9.140;2023-04-28T03:09:19;13.80;58.30
60848;DHT22;46681;47.696;9.140;2023-04-28T03:11:46;13.80;58.50
60848;DHT22;46681;47.696;9.140;2023-04-28T03:14:12;13.80;58.50
60848;DHT22;46681;47.696;9.140;2023-04-28T03:16:42;13.80;58.70
60848;DHT22;46681;47.696;9.140;2023-04-28T03:19:09;13.80;58.80
60848;DHT22;46681;47.696;9.140;2023-04-28T03:21:36;13.80;58.90
60848;DHT22;46681;47.696;9.140;2023-04-28T03:24:03;13.80;58.90
60848;DHT22;46681;47.696;9.140;2023-04-28T03:26:32;13.80;59.20
60848;DHT22;46681;47.696;9.140;2023-04-28T03:29:02;13.80;59.10
60848;DHT22;46681;47.696;9.140;2023-04-28T03:31:35;13.80;59.30
60848;DHT22;46681;47.696;9.140;2023-04-28T03:34:05;13.80;59.40
60848;DHT22;46681;47.696;9.140;2023-04-28T03:36:30;13.80;59.40
60848;DHT22;46681;47.696;9.140;2023-04-28T03:39:05;13.70;59.40
60848;DHT22;46681;47.696;9.140;2023-04-28T03:41:31;13.80;59.70
60848;DHT22;46681;47.696;9.140;2023-04-28T03:43:57;13.80;59.90
60848;DHT22;46681;47.696;9.140;2023-04-28T03:46:24;13.70;59.80
60848;DHT22;46681;47.696;9.140;2023-04-28T03:48:52;13.70;60.30
60848;DHT22;46681;47.696;9.140;2023-04-28T03:51:21;13.70;61.20
60848;DHT22;46681;47.696;9.140;2023-04-28T03:53:52;13.70;61.70
60848;DHT22;46681;47.696;9.140;2023-04-28T03:56:18;13.80;62.50
60848;DHT22;46681;47.696;9.140;2023-04-28T03:58:44;13.70;62.80
60848;DHT22;46681;47.696;9.140;2023-04-28T04:01:13;13.70;62.90
60848;DHT22;46681;47.696;9.140;2023-04-28T04:03:39;13.70;63.80
60848;DHT22;46681;47.696;9.140;2023-04-28T04:06:09;13.70;63.90
60848;DHT22;46681;47.696;9.140;2023-04-28T04:08:36;13.70;64.20
60848;DHT22;46681;47.696;9.140;2023-04-28T04:11:06;13.70;64.20
60848;DHT22;46681;47.696;9.140;2023-04-28T04:13:35;13.80;68.20
60848;DHT22;46681;47.696;9.140;2023-04-28T04:16:01;13.80;71.20
60848;DHT22;46681;47.696;9.140;2023-04-28T04:18:28;13.70;70.40
60848;DHT22;46681;47.696;9.140;2023-04-28T04:20:57;13.60;70.40
60848;DHT22;46681;47.696;9.140;2023-04-28T04:23:23;13.70;72.10
60848;DHT22;46681;47.696;9.140;2023-04-28T04:25:50;13.60;71.90
60848;DHT22;46681;47.696;9.140;2023-04-28T04:28:17;13.60;73.10
60848;DHT22;46681;47.696;9.140;2023-04-28T04:30:50;13.60;72.80
60848;DHT22;46681;47.696;9.140;2023-04-28T04:33:17;13.60;72.30
60848;DHT22;46681;47.696;9.140;2023-04-28T04:35:47;13.60;72.40
60848;DHT22;46681;47.696;9.140;2023-04-28T04:38:13;13.60;75.80
60848;DHT22;46681;47.696;9.140;2023-04-28T04:40:45;13.60;73.60
60848;DHT22;46681;47.696;9.140;2023-04-28T04:43:12;13.60;72.90
60848;DHT22;46681;47.696;9.140;2023-04-28T04:45:40;13.60;73.50
60848;DHT22;46681;47.696;9.140;2023-04-28T04:48:15;13.60;74.10
60848;DHT22;46681;47.696;9.140;2023-04-28T04:50:45;13.60;73.80
60848;DHT22;46681;47.696;9.140;2023-04-28T04:53:11;13.60;73.50
60848;DHT22;46681;47.696;9.140;2023-04-28T04:55:52;13.60;73.50
60848;DHT22;46681;47.696;9.140;2023-04-28T04:58:20;13.60;73.60
60848;DHT22;46681;47.696;9.140;2023-04-28T05:00:52;13.60;74.20
60848;DHT22;46681;47.696;9.140;2023-04-28T05:03:28;13.60;74.10
60848;DHT22;46681;47.696;9.140;2023-04-28T05:06:02;13.60;74.20
60848;DHT22;46681;47.696;9.140;2023-04-28T05:11:31;13.70;74.40
60848;DHT22;46681;47.696;9.140;2023-04-28T05:13:58;13.70;74.60
60848;DHT22;46681;47.696;9.140;2023-04-28T05:16:25;13.80;73.30
60848;DHT22;46681;47.696;9.140;2023-04-28T05:18:55;13.80;73.30
60848;DHT22;46681;47.696;9.140;2023-04-28T05:21:21;13.80;73.30
60848;DHT22;46681;47.696;9.140;2023-04-28T05:23:48;13.80;74.30
60848;DHT22;46681;47.696;9.140;2023-04-28T05:26:21;13.80;74.20
60848;DHT22;46681;47.696;9.140;2023-04-28T05:28:51;13.80;75.00
60848;DHT22;46681;47.696;9.140;2023-04-28T05:31:20;13.80;74.70
60848;DHT22;46681;47.696;9.140;2023-04-28T05:33:47;13.80;74.20
60848;DHT22;46681;47.696;9.140;2023-04-28T05:36:33;13.90;74.50
60848;DHT22;46681;47.696;9.140;2023-04-28T05:38:59;13.90;74.40
60848;DHT22;46681;47.696;9.140;2023-04-28T05:41:26;13.90;74.90
60848;DHT22;46681;47.696;9.140;2023-04-28T05:43:52;13.90;74.90
60848;DHT22;46681;47.696;9.140;2023-04-28T05:46:19;13.90;74.90
60848;DHT22;46681;47.696;9.140;2023-04-28T05:48:49;13.90;75.20
60848;DHT22;46681;47.696;9.140;2023-04-28T05:51:16;13.90;75.60
60848;DHT22;46681;47.696;9.140;2023-04-28T05:53:45;13.80;75.50
60848;DHT22;46681;47.696;9.140;2023-04-28T05:56:12;13.90;75.60
60848;DHT22;46681;47.696;9.140;2023-04-28T05:58:39;13.90;75.60
60848;DHT22;46681;47.696;9.140;2023-04-28T06:01:05;13.90;75.60
60848;DHT22;46681;47.696;9.140;2023-04-28T06:03:33;13.90;75.60
60848;DHT22;46681;47.696;9.140;2023-04-28T06:06:00;13.90;75.50
60848;DHT22;46681;47.696;9.140;2023-04-28T06:08:26;13.90;75.40
60848;DHT22;46681;47.696;9.140;2023-04-28T06:11:14;13.90;75.40
60848;DHT22;46681;47.696;9.140;2023-04-28T06:13:41;13.90;75.50
60848;DHT22;46681;47.696;9.140;2023-04-28T06:16:08;13.90;75.50
60848;DHT22;46681;47.696;9.140;2023-04-28T06:18:59;13.90;75.50
60848;DHT22;46681;47.696;9.140;2023-04-28T06:34:15;14.00;75.50
60848;DHT22;46681;47.696;9.140;2023-04-28T06:37:06;14.00;75.40
60848;DHT22;46681;47.696;9.140;2023-04-28T06:40:09;14.00;75.50
60848;DHT22;46681;47.696;9.140;2023-04-28T06:42:41;14.00;75.40
60848;DHT22;46681;47.696;9.140;2023-04-28T06:48:03;14.10;75.30
60848;DHT22;46681;47.696;9.140;2023-04-28T06:51:05;14.10;75.20
60848;DHT22;46681;47.696;9.140;2023-04-28T06:53:55;14.10;75.20
60848;DHT22;46681;47.696;9.140;2023-04-28T06:56:27;14.10;75.20
60848;DHT22;46681;47.696;9.140;2023-04-28T06:59:00;14.10;75.00
60848;DHT22;46681;47.696;9.140;2023-04-28T07:02:07;14.20;75.20
60848;DHT22;46681;47.696;9.140;2023-04-28T07:04:38;14.20;75.00
60848;DHT22;46681;47.696;9.140;2023-04-28T07:07:08;14.20;75.20
60848;DHT22;46681;47.696;9.140;2023-04-28T07:09:35;14.20;75.20
60848;DHT22;46681;47.696;9.140;2023-04-28T07:12:16;14.20;75.00
60848;DHT22;46681;47.696;9.140;2023-04-28T07:18:17;14.20;74.90
60848;DHT22;46681;47.696;9.140;2023-04-28T07:20:51;14.20;75.00
60848;DHT22;46681;47.696;9.140;2023-04-28T07:23:28;14.20;75.00
60848;DHT22;46681;47.696;9.140;2023-04-28T07:25:57;14.30;74.90
60848;DHT22;46681;47.696;9.140;2023-04-28T07:28:32;14.30;74.90
60848;DHT22;46681;47.696;9.140;2023-04-28T07:31:12;14.30;74.90
60848;DHT22;46681;47.696;9.140;2023-04-28T07:33:44;14.30;74.80
60848;DHT22;46681;47.696;9.140;2023-04-28T07:42:52;14.30;74.80
60848;DHT22;46681;47.696;9.140;2023-04-28T07:51:55;14.40;74.30
60848;DHT22;46681;47.696;9.140;2023-04-28T07:58:06;14.40;74.60
60848;DHT22;46681;47.696;9.140;2023-04-28T08:06:47;14.30;74.80
60848;DHT22;46681;47.696;9.140;2023-04-28T08:09:29;14.30;76.50
60848;DHT22;46681;47.696;9.140;2023-04-28T08:12:07;14.30;77.20
60848;DHT22;46681;47.696;9.140;2023-04-28T08:14:57;14.30;77.30
60848;DHT22;46681;47.696;9.140;2023-04-28T08:24:01;14.30;78.50
60848;DHT22;46681;47.696;9.140;2023-04-28T08:26:32;14.30;79.50
60848;DHT22;46681;47.696;9.140;2023-04-28T08:29:24;14.30;79.10
60848;DHT22;46681;47.696;9.140;2023-04-28T08:32:10;14.30;79.30
60848;DHT22;46681;47.696;9.140;2023-04-28T08:34:40;14.30;79.40
60848;DHT22;46681;47.696;9.140;2023-04-28T08:37:26;14.30;79.20
60848;DHT22;46681;47.696;9.140;2023-04-28T08:39:56;14.30;79.40
60848;DHT22;46681;47.696;9.140;2023-04-28T08:45:25;14.40;79.50
60848;DHT22;46681;47.696;9.140;2023-04-28T08:47:55;14.40;79.60
60848;DHT22;46681;47.696;9.140;2023-04-28T08:51:07;14.40;79.40
60848;DHT22;46681;47.696;9.140;2023-04-28T08:53:44;14.40;79.50
60848;DHT22;46681;47.696;9.140;2023-04-28T08:59:44;14.50;79.10
60848;DHT22;46681;47.696;9.140;2023-04-28T09:02:49;14.50;79.80
60848;DHT22;46681;47.696;9.140;2023-04-28T09:05:25;14.50;79.50
60848;DHT22;46681;47.696;9.140;2023-04-28T09:08:23;14.50;79.50
60848;DHT22;46681;47.696;9.140;2023-04-28T09:11:30;14.60;79.40
60848;DHT22;46681;47.696;9.140;2023-04-28T09:14:25;14.60;79.00
60848;DHT22;46681;47.696;9.140;2023-04-28T09:20:30;14.70;79.20
60848;DHT22;46681;47.696;9.140;2023-04-28T09:27:03;14.70;79.00
60848;DHT22;46681;47.696;9.140;2023-04-28T09:32:41;14.80;79.10
60848;DHT22;46681;47.696;9.140;2023-04-28T09:39:09;14.80;79.10
60848;DHT22;46681;47.696;9.140;2023-04-28T09:42:08;14.90;79.30
60848;DHT22;46681;47.696;9.140;2023-04-28T09:51:05;14.90;79.20
60848;DHT22;46681;47.696;9.140;2023-04-28T09:54:16;14.90;79.00
60848;DHT22;46681;47.696;9.140;2023-04-28T09:56:54;14.90;79.00
60848;DHT22;46681;47.696;9.140;2023-04-28T09:59:29;14.90;78.40
60848;DHT22;46681;47.696;9.140;2023-04-28T10:02:38;14.90;78.90
60848;DHT22;46681;47.696;9.140;2023-04-28T10:05:08;14.90;79.00
60848;DHT22;46681;47.696;9.140;2023-04-28T10:08:15;14.90;79.60
60848;DHT22;46681;47.696;9.140;2023-04-28T10:14:23;14.90;79.20
60848;DHT22;46681;47.696;9.140;2023-04-28T10:17:35;14.90;79.20
60848;DHT22;46681;47.696;9.140;2023-04-28T10:26:17;14.90;79.40
60848;DHT22;46681;47.696;9.140;2023-04-28T10:32:25;15.00;79.40
60848;DHT22;46681;47.696;9.140;2023-04-28T10:38:22;15.00;79.10
60848;DHT22;46681;47.696;9.140;2023-04-28T10:41:33;15.10;79.10
60848;DHT22;46681;47.696;9.140;2023-04-28T10:47:17;15.20;78.80
60848;DHT22;46681;47.696;9.140;2023-04-28T10:50:05;15.20;78.80
60848;DHT22;46681;47.696;9.140;2023-04-28T10:53:15;15.20;78.80
60848;DHT22;46681;47.696;9.140;2023-04-28T10:56:27;15.20;78.60
60848;DHT22;46681;47.696;9.140;2023-04-28T11:05:26;15.30;78.30
60848;DHT22;46681;47.696;9.140;2023-04-28T11:14:54;15.40;78.80
60848;DHT22;46681;47.696;9.140;2023-04-28T11:17:53;15.40;78.70
60848;DHT22;46681;47.696;9.140;2023-04-28T11:23:29;15.40;78.70
60848;DHT22;46681;47.696;9.140;2023-04-28T11:26:19;15.40;78.70
60848;DHT22;46681;47.696;9.140;2023-04-28T11:29:29;15.40;78.60
60848;DHT22;46681;47.696;9.140;2023-04-28T11:34:56;15.50;78.60
60848;DHT22;46681;47.696;9.140;2023-04-28T11:37:42;15.50;78.70
60848;DHT22;46681;47.696;9.140;2023-04-28T11:40:14;15.50;78.40
60848;DHT22;46681;47.696;9.140;2023-04-28T11:45:55;15.50;78.30
60848;DHT22;46681;47.696;9.140;2023-04-28T12:01:11;15.60;78.00
60848;DHT22;46681;47.696;9.140;2023-04-28T12:03:57;15.60;77.70
60848;DHT22;46681;47.696;9.140;2023-04-28T12:06:25;15.60;77.70
60848;DHT22;46681;47.696;9.140;2023-04-28T12:09:13;15.70;77.60
60848;DHT22;46681;47.696;9.140;2023-04-28T12:12:11;15.70;77.80
60848;DHT22;46681;47.696;9.140;2023-04-28T12:17:40;15.80;77.30
60848;DHT22;46681;47.696;9.140;2023-04-28T12:20:45;15.80;77.00
60848;DHT22;46681;47.696;9.140;2023-04-28T12:23:34;15.80;77.20
60848;DHT22;46681;47.696;9.140;2023-04-28T12:26:26;15.90;77.40
60848;DHT22;46681;47.696;9.140;2023-04-28T12:29:00;15.90;77.30
60848;DHT22;46681;47.696;9.140;2023-04-28T12:31:39;15.90;77.50
60848;DHT22;46681;47.696;9.140;2023-04-28T12:34:21;16.00;77.30
60848;DHT22;46681;47.696;9.140;2023-04-28T12:36:58;16.00;77.40
60848;DHT22;46681;47.696;9.140;2023-04-28T12:39:49;16.10;77.70
60848;DHT22;46681;47.696;9.140;2023-04-28T12:42:31;16.10;77.60
60848;DHT22;46681;47.696;9.140;2023-04-28T12:45:27;16.20;77.20
60848;DHT22;46681;47.696;9.140;2023-04-28T12:48:04;16.20;77.50
60848;DHT22;46681;47.696;9.140;2023-04-28T12:50:35;16.30;77.90
60848;DHT22;46681;47.696;9.140;2023-04-28T12:55:58;16.40;78.40
60848;DHT22;46681;47.696;9.140;2023-04-28T13:04:41;16.50;78.30
60848;DHT22;46681;47.696;9.140;2023-04-28T13:07:54;16.50;78.70
60848;DHT22;46681;47.696;9.140;2023-04-28T13:13:28;16.60;78.40
60848;DHT22;46681;47.696;9.140;2023-04-28T13:15:53;16.60;78.00
60848;DHT22;46681;47.696;9.140;2023-04-28T13:18:22;16.60;78.70
60848;DHT22;46681;47.696;9.140;2023-04-28T13:20:54;16.70;78.70
60848;DHT22;46681;47.696;9.140;2023-04-28T13:23:22;16.70;78.40
60848;DHT22;46681;47.696;9.140;2023-04-28T13:26:15;16.70;76.60
60848;DHT22;46681;47.696;9.140;2023-04-28T13:29:03;16.80;76.50
60848;DHT22;46681;47.696;9.140;2023-04-28T13:31:52;16.70;77.20
60848;DHT22;46681;47.696;9.140;2023-04-28T13:34:51;16.80;78.00
60848;DHT22;46681;47.696;9.140;2023-04-28T13:37:18;16.80;78.30
60848;DHT22;46681;47.696;9.140;2023-04-28T13:39:52;16.80;79.20
60848;DHT22;46681;47.696;9.140;2023-04-28T13:42:24;16.90;79.60
60848;DHT22;46681;47.696;9.140;2023-04-28T13:45:14;17.00;80.20
60848;DHT22;46681;47.696;9.140;2023-04-28T13:47:47;17.10;80.10
60848;DHT22;46681;47.696;9.140;2023-04-28T13:50:21;17.10;81.00
60848;DHT22;46681;47.696;9.140;2023-04-28T13:53:00;17.10;80.20
60848;DHT22;46681;47.696;9.140;2023-04-28T13:55:33;17.20;80.00
60848;DHT22;46681;47.696;9.140;2023-04-28T13:58:04;17.20;80.90
60848;DHT22;46681;47.696;9.140;2023-04-28T14:06:28;17.30;81.40
60848;DHT22;46681;47.696;9.140;2023-04-28T14:08:59;17.40;81.20
60848;DHT22;46681;47.696;9.140;2023-04-28T14:15:08;17.70;81.00
60848;DHT22;46681;47.696;9.140;2023-04-28T14:17:47;17.80;81.50
60848;DHT22;46681;47.696;9.140;2023-04-28T14:20:16;17.80;80.10
60848;DHT22;46681;47.696;9.140;2023-04-28T14:23:19;17.90;80.30
60848;DHT22;46681;47.696;9.140;2023-04-28T14:25:57;17.90;80.30
60848;DHT22;46681;47.696;9.140;2023-04-28T14:28:35;17.90;80.60
60848;DHT22;46681;47.696;9.140;2023-04-28T14:31:26;17.90;80.30
60848;DHT22;46681;47.696;9.140;2023-04-28T14:34:04;17.80;79.60
60848;DHT22;46681;47.696;9.140;2023-04-28T14:36:37;17.90;80.20
60848;DHT22;46681;47.696;9.140;2023-04-28T14:39:13;17.90;80.30
60848;DHT22;46681;47.696;9.140;2023-04-28T14:42:04;17.90;80.80
60848;DHT22;46681;47.696;9.140;2023-04-28T14:44:51;17.90;80.40
60848;DHT22;46681;47.696;9.140;2023-04-28T14:47:19;17.90;80.80
60848;DHT22;46681;47.696;9.140;2023-04-28T14:55:29;17.90;80.80
60848;DHT22;46681;47.696;9.140;2023-04-28T14:57:58;17.90;80.40
60848;DHT22;46681;47.696;9.140;2023-04-28T15:00:41;17.90;80.00
60848;DHT22;46681;47.696;9.140;2023-04-28T15:03:50;17.80;80.50
60848;DHT22;46681;47.696;9.140;2023-04-28T15:06:24;17.80;80.60
60848;DHT22;46681;47.696;9.140;2023-04-28T15:08:59;17.80;80.50
60848;DHT22;46681;47.696;9.140;2023-04-28T15:11:28;17.80;80.40
60848;DHT22;46681;47.696;9.140;2023-04-28T15:14:09;17.80;80.50
60848;DHT22;46681;47.696;9.140;2023-04-28T15:17:08;17.90;79.60
60848;DHT22;46681;47.696;9.140;2023-04-28T15:19:45;17.90;80.30
60848;DHT22;46681;47.696;9.140;2023-04-28T15:22:16;17.90;79.90
60848;DHT22;46681;47.696;9.140;2023-04-28T15:24:55;18.00;80.20
60848;DHT22;46681;47.696;9.140;2023-04-28T15:27:33;18.00;79.70
60848;DHT22;46681;47.696;9.140;2023-04-28T15:30:15;18.00;79.20
60848;DHT22;46681;47.696;9.140;2023-04-28T15:33:05;17.90;79.30
60848;DHT22;46681;47.696;9.140;2023-04-28T15:35:44;18.00;78.80
60848;DHT22;46681;47.696;9.140;2023-04-28T15:38:33;17.90;79.00
60848;DHT22;46681;47.696;9.140;2023-04-28T15:41:36;17.90;79.10
60848;DHT22;46681;47.696;9.140;2023-04-28T15:44:11;17.90;78.80
60848;DHT22;46681;47.696;9.140;2023-04-28T15:46:50;17.90;78.70
60848;DHT22;46681;47.696;9.140;2023-04-28T15:55:22;17.90;78.20
60848;DHT22;46681;47.696;9.140;2023-04-28T15:58:17;17.90;77.80
60848;DHT22;46681;47.696;9.140;2023-04-28T16:04:38;18.00;77.70
60848;DHT22;46681;47.696;9.140;2023-04-28T16:07:39;18.10;77.40
60848;DHT22;46681;47.696;9.140;2023-04-28T16:10:34;18.10;77.60
60848;DHT22;46681;47.696;9.140;2023-04-28T16:13:49;18.00;77.50
60848;DHT22;46681;47.696;9.140;2023-04-28T16:16:57;18.00;77.30
60848;DHT22;46681;47.696;9.140;2023-04-28T16:19:33;18.00;77.00
60848;DHT22;46681;47.696;9.140;2023-04-28T16:28:48;18.10;76.90
60848;DHT22;46681;47.696;9.140;2023-04-28T16:31:22;18.00;76.70
60848;DHT22;46681;47.696;9.140;2023-04-28T16:33:56;18.10;76.50
60848;DHT22;46681;47.696;9.140;2023-04-28T16:36:33;18.00;76.70
60848;DHT22;46681;47.696;9.140;2023-04-28T16:39:10;18.10;77.10
60848;DHT22;46681;47.696;9.140;2023-04-28T16:41:57;18.00;76.60
60848;DHT22;46681;47.696;9.140;2023-04-28T16:48:10;18.00;77.00
60848;DHT22;46681;47.696;9.140;2023-04-28T16:50:44;18.00;77.00
60848;DHT22;46681;47.696;9.140;2023-04-28T17:02:11;17.90;77.00
60848;DHT22;46681;47.696;9.140;2023-04-28T17:20:08;17.80;76.70
60848;DHT22;46681;47.696;9.140;2023-04-28T17:23:15;17.80;76.80
60848;DHT22;46681;47.696;9.140;2023-04-28T17:25:45;17.80;77.00
60848;DHT22;46681;47.696;9.140;2023-04-28T17:28:19;17.80;77.00
60848;DHT22;46681;47.696;9.140;2023-04-28T17:30:49;17.80;76.90
60848;DHT22;46681;47.696;9.140;2023-04-28T17:33:29;17.80;77.00
60848;DHT22;46681;47.696;9.140;2023-04-28T17:36:17;17.70;77.20
60848;DHT22;46681;47.696;9.140;2023-04-28T17:38:52;17.70;77.10
60848;DHT22;46681;47.696;9.140;2023-04-28T17:41:26;17.70;77.20
60848;DHT22;46681;47.696;9.140;2023-04-28T17:43:52;17.60;77.00
60848;DHT22;46681;47.696;9.140;2023-04-28T17:49:17;17.60;76.70
60848;DHT22;46681;47.696;9.140;2023-04-28T17:52:06;17.60;76.50
60848;DHT22;46681;47.696;9.140;2023-04-28T17:54:37;17.60;76.50
60848;DHT22;46681;47.696;9.140;2023-04-28T17:57:07;17.60;76.60
60848;DHT22;46681;47.696;9.140;2023-04-28T17:59:37;17.60;77.10
60848;DHT22;46681;47.696;9.140;2023-04-28T18:05:45;17.40;78.00
60848;DHT22;46681;47.696;9.140;2023-04-28T18:08:27;17.40;78.20
60848;DHT22;46681;47.696;9.140;2023-04-28T18:11:02;17.30;80.80
60848;DHT22;46681;47.696;9.140;2023-04-28T18:19:37;17.20;78.60
60848;DHT22;46681;47.696;9.140;2023-04-28T18:22:14;17.20;78.90
60848;DHT22;46681;47.696;9.140;2023-04-28T18:24:42;17.20;78.70
60848;DHT22;46681;47.696;9.140;2023-04-28T18:27:15;17.20;78.80
60848;DHT22;46681;47.696;9.140;2023-04-28T18:29:52;17.20;78.70
60848;DHT22;46681;47.696;9.140;2023-04-28T18:32:35;17.20;78.70
60848;DHT22;46681;47.696;9.140;2023-04-28T18:35:08;17.20;78.60
60848;DHT22;46681;47.696;9.140;2023-04-28T18:37:38;17.10;78.50
60848;DHT22;46681;47.696;9.140;2023-04-28T18:40:11;17.10;78.40
60848;DHT22;46681;47.696;9.140;2023-04-28T18:42:39;17.10;78.60
60848;DHT22;46681;47.696;9.140;2023-04-28T18:45:18;17.10;78.80
60848;DHT22;46681;47.696;9.140;2023-04-28T18:47:51;17.10;78.50
60848;DHT22;46681;47.696;9.140;2023-04-28T18:50:24;17.00;78.40
60848;DHT22;46681;47.696;9.140;2023-04-28T18:53:01;17.00;78.60
60848;DHT22;46681;47.696;9.140;2023-04-28T18:55:38;17.00;78.70
60848;DHT22;46681;47.696;9.140;2023-04-28T18:58:13;16.90;78.60
60848;DHT22;46681;47.696;9.140;2023-04-28T19:05:50;16.90;78.60
60848;DHT22;46681;47.696;9.140;2023-04-28T19:08:17;16.80;78.60
60848;DHT22;46681;47.696;9.140;2023-04-28T19:10:50;16.80;78.70
60848;DHT22;46681;47.696;9.140;2023-04-28T19:13:24;16.80;79.00
60848;DHT22;46681;47.696;9.140;2023-04-28T19:15:53;16.80;79.00
60848;DHT22;46681;47.696;9.140;2023-04-28T19:18:19;16.70;78.90
60848;DHT22;46681;47.696;9.140;2023-04-28T19:20:44;16.70;79.00
60848;DHT22;46681;47.696;9.140;2023-04-28T19:23:10;16.70;78.60
60848;DHT22;46681;47.696;9.140;2023-04-28T19:25:39;16.60;79.10
60848;DHT22;46681;47.696;9.140;2023-04-28T19:28:10;16.60;79.10
60848;DHT22;46681;47.696;9.140;2023-04-28T19:30:43;16.60;79.30
60848;DHT22;46681;47.696;9.140;2023-04-28T19:33:11;16.50;79.10
60848;DHT22;46681;47.696;9.140;2023-04-28T19:35:43;16.50;79.40
60848;DHT22;46681;47.696;9.140;2023-04-28T19:38:10;16.50;79.10
60848;DHT22;46681;47.696;9.140;2023-04-28T19:40:43;16.40;79.50
60848;DHT22;46681;47.696;9.140;2023-04-28T19:43:12;16.40;79.30
60848;DHT22;46681;47.696;9.140;2023-04-28T19:45:50;16.40;79.20
60848;DHT22;46681;47.696;9.140;2023-04-28T19:48:16;16.30;79.60
60848;DHT22;46681;47.696;9.140;2023-04-28T19:50:44;16.30;79.50
60848;DHT22;46681;47.696;9.140;2023-04-28T19:53:10;16.30;79.60
60848;DHT22;46681;47.696;9.140;2023-04-28T19:55:41;16.30;79.50
60848;DHT22;46681;47.696;9.140;2023-04-28T19:58:09;16.20;79.50
60848;DHT22;46681;47.696;9.140;2023-04-28T20:00:42;16.20;79.80
60848;DHT22;46681;47.696;9.140;2023-04-28T20:03:08;16.20;79.90
60848;DHT22;46681;47.696;9.140;2023-04-28T20:05:36;16.10;80.00
60848;DHT22;46681;47.696;9.140;2023-04-28T20:08:03;16.10;79.90